createdAt,value
2023-04-12T00:03:10.479Z,97878.47
2023-04-12T00:08:40.331Z,97881.16
2023-04-12T00:14:05.337Z,97879.16
2023-04-12T00:19:39.320Z,97868.97
2023-04-12T00:25:04.321Z,97860.97
2023-04-12T00:30:30.497Z,97850.88
2023-04-12T00:35:58.393Z,97845.09
2023-04-12T00:41:23.331Z,97832.03
2023-04-12T00:46:49.386Z,97829.25
2023-04-12T00:52:21.480Z,97819.97
2023-04-12T00:57:47.343Z,97815.84
2023-04-12T01:03:12.531Z,97808.00
2023-04-12T01:08:52.345Z,97803.91
2023-04-12T01:14:23.488Z,97805.03
2023-04-12T01:20:06.292Z,97799.38
2023-04-12T01:25:47.432Z,97793.47
2023-04-12T01:31:16.387Z,97773.81
2023-04-12T01:36:44.356Z,97781.91
2023-04-12T01:42:08.355Z,97772.25
2023-04-12T01:47:36.402Z,97755.56
2023-04-12T01:53:19.370Z,97756.28
2023-04-12T01:58:45.359Z,97757.13
2023-04-12T02:04:13.475Z,97754.72
2023-04-12T02:09:38.341Z,97743.94
2023-04-12T02:15:04.518Z,97729.66
2023-04-12T02:20:39.359Z,97717.19
2023-04-12T02:26:04.538Z,97705.44
2023-04-12T02:31:28.385Z,97697.19
2023-04-12T02:36:59.375Z,97697.91
2023-04-12T02:42:23.361Z,97695.50
2023-04-12T02:47:48.408Z,97685.50
2023-04-12T02:53:20.391Z,97667.41
2023-04-12T02:59:03.443Z,97645.41
2023-04-12T03:04:47.414Z,97657.50
2023-04-12T03:10:21.407Z,97647.81
2023-04-12T03:16:03.412Z,97643.78
2023-04-12T03:21:35.417Z,97641.38
2023-04-12T03:27:04.373Z,97646.94
2023-04-12T03:32:30.441Z,97625.56
2023-04-12T03:37:57.399Z,97636.75
2023-04-12T03:43:24.392Z,97632.28
2023-04-12T03:48:49.444Z,97616.28
2023-04-12T03:54:16.397Z,97606.50
2023-04-12T03:59:56.467Z,97596.97
2023-04-12T04:05:35.495Z,97597.81
2023-04-12T04:11:00.393Z,97585.22
2023-04-12T04:16:32.443Z,97579.75
2023-04-12T04:22:00.440Z,97571.75
2023-04-12T04:27:27.467Z,97567.84
2023-04-12T04:32:56.678Z,97561.16
2023-04-12T04:38:22.664Z,97555.25
2023-04-12T04:43:57.639Z,97549.53
2023-04-12T04:49:26.459Z,97541.00
2023-04-12T04:54:56.433Z,97528.09
2023-04-12T05:00:28.437Z,97536.38
2023-04-12T05:05:58.429Z,97533.16
2023-04-12T05:11:24.445Z,97534.44
2023-04-12T05:16:49.488Z,97530.22
2023-04-12T05:22:16.446Z,97531.47
2023-04-12T05:27:41.468Z,97525.28
2023-04-12T05:33:08.620Z,97519.25
2023-04-12T05:38:39.483Z,97507.72
2023-04-12T05:44:04.460Z,97499.56
2023-04-12T05:49:29.498Z,97507.28
2023-04-12T05:54:59.444Z,97504.28
2023-04-12T06:00:26.544Z,97501.28
2023-04-12T06:05:51.518Z,97486.91
2023-04-12T06:11:19.558Z,97475.91
2023-04-12T06:16:45.464Z,97464.56
2023-04-12T06:22:10.527Z,97466.19
2023-04-12T06:27:37.500Z,97444.59
2023-04-12T06:33:03.615Z,97432.03
2023-04-12T06:38:27.472Z,97422.47
2023-04-12T06:43:55.474Z,97415.13
2023-04-12T06:49:19.739Z,97399.34
2023-04-12T06:54:46.614Z,97391.34
2023-04-12T07:00:13.458Z,97368.56
2023-04-12T07:05:38.503Z,97362.09
2023-04-12T07:16:42.648Z,97333.28
2023-04-12T07:22:14.252Z,97311.78
2023-04-12T07:27:39.486Z,97304.38
2023-04-12T07:33:18.387Z,97300.28
2023-04-12T07:38:44.508Z,97295.84
2023-04-12T07:44:09.526Z,97297.34
2023-04-12T07:49:37.563Z,97295.91
2023-04-12T07:55:01.770Z,97287.47
2023-04-12T08:00:27.735Z,97277.50
2023-04-12T08:05:59.575Z,97262.03
2023-04-12T08:11:24.531Z,97254.84
2023-04-12T08:16:50.559Z,97255.03
2023-04-12T08:22:25.554Z,97249.31
2023-04-12T08:27:52.768Z,97246.81
2023-04-12T08:33:16.625Z,97238.69
2023-04-12T08:38:46.459Z,97232.63
2023-04-12T08:44:11.588Z,97222.31
2023-04-12T08:49:36.564Z,97207.38
2023-04-12T08:55:03.553Z,97205.56
2023-04-12T09:00:39.731Z,97197.84
2023-04-12T09:06:16.205Z,97186.25
2023-04-12T09:12:19.699Z,97173.91
2023-04-12T09:17:50.321Z,97155.56
2023-04-12T09:23:31.897Z,97149.00
2023-04-12T09:29:16.980Z,97136.41
2023-04-12T09:35:07.187Z,97114.34
2023-04-12T09:40:42.774Z,97097.84
2023-04-12T09:46:31.542Z,97102.25
2023-04-12T09:52:30.750Z,97084.31
2023-04-12T09:58:05.726Z,97086.97
2023-04-12T10:03:44.765Z,97067.38
2023-04-12T10:09:21.107Z,97059.47
2023-04-12T10:14:48.950Z,97045.38
2023-04-12T10:20:36.051Z,97040.44
2023-04-12T10:26:17.869Z,97030.06
2023-04-12T10:31:51.659Z,97023.44
2023-04-12T10:37:27.751Z,97035.41
2023-04-12T10:42:52.583Z,97032.66
2023-04-12T10:48:17.656Z,97029.41
2023-04-12T10:53:45.641Z,97020.56
2023-04-12T10:59:17.637Z,97023.28
2023-04-12T11:04:42.720Z,97023.16
2023-04-12T11:10:29.627Z,97020.03
2023-04-12T11:15:54.621Z,97021.19
2023-04-12T11:21:25.660Z,97024.09
2023-04-12T11:26:58.638Z,97028.78
2023-04-12T11:32:26.786Z,97020.84
2023-04-12T11:37:52.677Z,97015.38
2023-04-12T11:43:20.869Z,97017.72
2023-04-12T11:48:46.626Z,97014.38
2023-04-12T11:54:11.656Z,96998.00
2023-04-12T11:59:45.753Z,96996.31
2023-04-12T12:05:10.868Z,96982.63
2023-04-12T12:10:46.170Z,96968.09
2023-04-12T12:16:27.805Z,96957.59
2023-04-12T12:21:58.662Z,96958.53
2023-04-12T12:27:27.690Z,96943.53
2023-04-12T12:32:56.673Z,96939.81
2023-04-12T12:38:28.924Z,96917.69
2023-04-12T12:44:00.725Z,96918.94
2023-04-12T12:49:28.662Z,96908.28
2023-04-12T12:54:53.715Z,96893.31
2023-04-12T13:00:21.711Z,96880.72
2023-04-12T13:05:48.680Z,96883.66
2023-04-12T13:11:14.386Z,96875.22
2023-04-12T13:16:39.749Z,96872.34
2023-04-12T13:22:14.676Z,96863.44
2023-04-12T13:27:39.725Z,96858.88
2023-04-12T13:33:04.710Z,96864.75
2023-04-12T13:38:32.886Z,96859.41
2023-04-12T13:43:56.982Z,96842.19
2023-04-12T13:49:21.683Z,96832.06
2023-04-12T13:54:49.736Z,96840.09
2023-04-12T14:00:16.710Z,96834.03
2023-04-12T14:05:42.722Z,96813.28
2023-04-12T14:11:12.677Z,96808.09
2023-04-12T14:16:36.824Z,96809.34
2023-04-12T14:22:08.731Z,96792.16
2023-04-12T14:27:36.839Z,96797.56
2023-04-12T14:33:07.766Z,96796.31
2023-04-12T14:38:32.772Z,96799.22
2023-04-12T14:44:00.131Z,96787.63
2023-04-12T14:49:24.760Z,96772.31
2023-04-12T14:54:48.723Z,96767.19
2023-04-12T15:00:19.751Z,96766.38
2023-04-12T15:05:43.746Z,96756.63
2023-04-12T15:11:08.767Z,96760.59
2023-04-12T15:16:35.810Z,96747.09
2023-04-12T15:22:01.752Z,96736.34
2023-04-12T15:27:27.926Z,96732.00
2023-04-12T15:32:55.777Z,96733.06
2023-04-12T15:38:23.404Z,96724.75
2023-04-12T15:43:51.915Z,96719.16
2023-04-12T15:49:19.814Z,96719.59
2023-04-12T15:54:49.053Z,96701.13
2023-04-12T16:00:26.810Z,96692.81
2023-04-12T16:05:55.034Z,96701.53
2023-04-12T16:11:19.804Z,96703.00
2023-04-12T16:16:46.833Z,96692.63
2023-04-12T16:22:14.784Z,96694.28
2023-04-12T16:27:39.784Z,96689.53
2023-04-12T16:33:04.839Z,96687.25
2023-04-12T16:38:32.809Z,96695.94
2023-04-12T16:43:59.816Z,96687.66
2023-04-12T16:49:24.853Z,96696.56
2023-04-12T16:54:51.803Z,96697.19
2023-04-12T17:00:35.809Z,96698.22
2023-04-12T17:06:01.873Z,96678.75
2023-04-12T17:11:29.868Z,96681.84
2023-04-12T17:16:53.842Z,96674.59
2023-04-12T17:22:18.864Z,96665.03
2023-04-12T17:27:46.888Z,96675.00
2023-04-12T17:33:18.849Z,96682.88
2023-04-12T17:38:43.863Z,96680.16
2023-04-12T17:44:13.058Z,96692.81
2023-04-12T17:49:38.943Z,96704.81
2023-04-12T17:55:03.170Z,96703.56
2023-04-12T18:00:33.927Z,96710.38
2023-04-12T18:05:59.954Z,96721.31
2023-04-12T18:11:24.882Z,96736.78
2023-04-12T18:16:53.907Z,96747.75
2023-04-12T18:22:18.859Z,96758.28
2023-04-12T18:27:44.058Z,96751.84
2023-04-12T18:33:17.903Z,96747.25
2023-04-12T18:38:42.854Z,96753.66
2023-04-12T18:44:07.934Z,96755.31
2023-04-12T18:49:35.899Z,96762.75
2023-04-12T18:55:05.019Z,96759.25
2023-04-12T19:00:30.981Z,96759.22
2023-04-12T19:05:58.876Z,96770.75
2023-04-12T19:11:23.867Z,96770.31
2023-04-12T19:16:48.889Z,96782.69
2023-04-12T19:22:16.986Z,96784.16
2023-04-12T19:27:41.879Z,96788.09
2023-04-12T19:33:15.053Z,96781.47
2023-04-12T19:38:42.880Z,96803.50
2023-04-12T19:44:06.882Z,96807.78
2023-04-12T19:49:32.884Z,96835.09
2023-04-12T19:55:02.920Z,96843.78
2023-04-12T20:00:33.161Z,96864.16
2023-04-12T20:05:57.906Z,96880.88
2023-04-12T20:11:25.947Z,96896.72
2023-04-12T20:16:51.933Z,96847.53
2023-04-12T20:22:16.983Z,96823.66
2023-04-12T20:27:44.923Z,96827.63
2023-04-12T20:33:15.906Z,96832.47
2023-04-12T20:38:41.033Z,96840.72
2023-04-12T20:44:08.969Z,96819.44
2023-04-12T20:49:33.918Z,96817.78
2023-04-12T20:54:59.965Z,96826.13
2023-04-12T21:00:35.913Z,96828.38
2023-04-12T21:06:07.935Z,96818.97
2023-04-12T21:11:33.939Z,96812.78
2023-04-12T21:17:01.305Z,96819.53
2023-04-12T21:22:25.955Z,96830.78
2023-04-12T21:27:51.950Z,96838.75
2023-04-12T21:33:19.912Z,96829.97
2023-04-12T21:38:43.926Z,96820.78
2023-04-12T21:44:08.962Z,96885.41
2023-04-12T21:49:36.986Z,96919.03
2023-04-12T21:55:02.968Z,96897.06
2023-04-12T22:00:30.959Z,96903.53
2023-04-12T22:06:06.006Z,96899.00
2023-04-12T22:11:31.122Z,96874.38
2023-04-12T22:16:56.055Z,96883.50
2023-04-12T22:22:23.999Z,96884.69
2023-04-12T22:27:52.959Z,96907.00
2023-04-12T22:33:19.943Z,96897.84
2023-04-12T22:38:48.977Z,96912.63
2023-04-12T22:44:15.954Z,96919.78
2023-04-12T22:49:44.491Z,96917.31
2023-04-12T22:55:11.971Z,96921.06
2023-04-12T23:00:37.006Z,96917.56
2023-04-12T23:06:08.951Z,96939.34
2023-04-12T23:11:36.950Z,96940.03
2023-04-12T23:17:04.446Z,96950.44
2023-04-12T23:22:56.046Z,96933.19
2023-04-12T23:28:23.995Z,96956.94
2023-04-12T23:33:50.001Z,96960.94
2023-04-12T23:39:16.236Z,96983.00
2023-04-12T23:44:44.244Z,96980.88
2023-04-12T23:50:09.003Z,96976.00
2023-04-12T23:55:34.993Z,96968.34
